sensor_id;sensor_type;location;lat;lon;timestamp;temperature;humidity
21425;DHT22;10873;51.132;16.848;2023-06-22T00:01:12;29.20;66.20
21425;DHT22;10873;51.132;16.848;2023-06-22T00:03:38;29.20;66.20
21425;DHT22;10873;51.132;16.848;2023-06-22T00:06:04;29.20;66.20
21425;DHT22;10873;51.132;16.848;2023-06-22T00:08:30;29.20;66.20
21425;DHT22;10873;51.132;16.848;2023-06-22T00:10:56;29.20;66.20
21425;DHT22;10873;51.132;16.848;2023-06-22T00:13:22;29.20;66.20
21425;DHT22;10873;51.132;16.848;2023-06-22T00:15:48;29.20;66.30
21425;DHT22;10873;51.132;16.848;2023-06-22T00:18:15;29.20;66.20
21425;DHT22;10873;51.132;16.848;2023-06-22T00:20:42;29.20;66.30
21425;DHT22;10873;51.132;16.848;2023-06-22T00:23:08;29.20;66.30
21425;DHT22;10873;51.132;16.848;2023-06-22T00:25:34;29.20;66.30
21425;DHT22;10873;51.132;16.848;2023-06-22T00:28:01;29.20;66.30
21425;DHT22;10873;51.132;16.848;2023-06-22T00:30:27;29.20;66.30
21425;DHT22;10873;51.132;16.848;2023-06-22T00:32:53;29.20;66.30
21425;DHT22;10873;51.132;16.848;2023-06-22T00:35:21;29.10;66.20
21425;DHT22;10873;51.132;16.848;2023-06-22T00:37:47;29.10;66.20
21425;DHT22;10873;51.132;16.848;2023-06-22T00:40:13;29.10;66.20
21425;DHT22;10873;51.132;16.848;2023-06-22T00:42:40;29.20;66.30
21425;DHT22;10873;51.132;16.848;2023-06-22T00:45:07;29.10;66.30
21425;DHT22;10873;51.132;16.848;2023-06-22T00:47:34;29.10;66.20
21425;DHT22;10873;51.132;16.848;2023-06-22T00:50:02;29.10;66.30
21425;DHT22;10873;51.132;16.848;2023-06-22T00:52:31;29.10;66.30
21425;DHT22;10873;51.132;16.848;2023-06-22T00:54:59;29.10;66.30
21425;DHT22;10873;51.132;16.848;2023-06-22T00:57:27;29.10;66.30
21425;DHT22;10873;51.132;16.848;2023-06-22T00:59:54;29.10;66.30
21425;DHT22;10873;51.132;16.848;2023-06-22T01:02:20;29.10;66.30
21425;DHT22;10873;51.132;16.848;2023-06-22T01:04:46;29.10;66.30
21425;DHT22;10873;51.132;16.848;2023-06-22T01:07:20;29.10;66.20
21425;DHT22;10873;51.132;16.848;2023-06-22T01:09:56;29.10;66.30
21425;DHT22;10873;51.132;16.848;2023-06-22T01:12:23;29.10;66.30
21425;DHT22;10873;51.132;16.848;2023-06-22T01:14:55;29.10;66.30
21425;DHT22;10873;51.132;16.848;2023-06-22T01:17:24;29.10;66.30
21425;DHT22;10873;51.132;16.848;2023-06-22T01:19:54;29.10;66.30
21425;DHT22;10873;51.132;16.848;2023-06-22T01:22:23;29.10;66.30
21425;DHT22;10873;51.132;16.848;2023-06-22T01:25:00;29.10;66.30
21425;DHT22;10873;51.132;16.848;2023-06-22T01:27:40;29.10;66.30
21425;DHT22;10873;51.132;16.848;2023-06-22T01:30:16;29.10;66.40
21425;DHT22;10873;51.132;16.848;2023-06-22T01:32:43;29.10;66.30
21425;DHT22;10873;51.132;16.848;2023-06-22T01:35:10;29.00;66.20
21425;DHT22;10873;51.132;16.848;2023-06-22T01:37:37;29.10;66.40
21425;DHT22;10873;51.132;16.848;2023-06-22T01:40:05;29.10;66.40
21425;DHT22;10873;51.132;16.848;2023-06-22T01:42:33;29.10;66.30
21425;DHT22;10873;51.132;16.848;2023-06-22T01:45:00;29.10;66.30
21425;DHT22;10873;51.132;16.848;2023-06-22T01:47:28;29.00;66.20
21425;DHT22;10873;51.132;16.848;2023-06-22T01:49:55;29.00;66.20
21425;DHT22;10873;51.132;16.848;2023-06-22T01:52:21;29.00;66.20
21425;DHT22;10873;51.132;16.848;2023-06-22T01:54:47;29.00;66.30
21425;DHT22;10873;51.132;16.848;2023-06-22T01:57:15;29.00;66.20
21425;DHT22;10873;51.132;16.848;2023-06-22T01:59:48;29.00;66.30
21425;DHT22;10873;51.132;16.848;2023-06-22T02:02:18;29.00;66.20
21425;DHT22;10873;51.132;16.848;2023-06-22T02:04:51;29.10;66.40
21425;DHT22;10873;51.132;16.848;2023-06-22T02:07:23;29.00;66.30
21425;DHT22;10873;51.132;16.848;2023-06-22T02:09:51;29.00;66.30
21425;DHT22;10873;51.132;16.848;2023-06-22T02:12:22;29.00;66.20
21425;DHT22;10873;51.132;16.848;2023-06-22T02:14:49;29.00;66.20
21425;DHT22;10873;51.132;16.848;2023-06-22T02:17:18;29.00;66.20
21425;DHT22;10873;51.132;16.848;2023-06-22T02:19:44;29.00;66.20
21425;DHT22;10873;51.132;16.848;2023-06-22T02:22:11;29.00;66.20
21425;DHT22;10873;51.132;16.848;2023-06-22T02:24:39;29.00;66.20
21425;DHT22;10873;51.132;16.848;2023-06-22T02:27:06;29.00;66.20
21425;DHT22;10873;51.132;16.848;2023-06-22T02:29:33;29.00;66.20
21425;DHT22;10873;51.132;16.848;2023-06-22T02:31:59;29.00;66.20
21425;DHT22;10873;51.132;16.848;2023-06-22T02:34:26;28.90;66.10
21425;DHT22;10873;51.132;16.848;2023-06-22T02:36:52;28.90;66.10
21425;DHT22;10873;51.132;16.848;2023-06-22T02:39:21;29.00;66.20
21425;DHT22;10873;51.132;16.848;2023-06-22T02:41:48;28.90;66.00
21425;DHT22;10873;51.132;16.848;2023-06-22T02:44:14;28.90;66.10
21425;DHT22;10873;51.132;16.848;2023-06-22T02:46:40;28.90;66.00
21425;DHT22;10873;51.132;16.848;2023-06-22T02:49:06;28.90;66.00
21425;DHT22;10873;51.132;16.848;2023-06-22T02:51:33;28.90;66.00
21425;DHT22;10873;51.132;16.848;2023-06-22T02:54:00;29.00;66.20
21425;DHT22;10873;51.132;16.848;2023-06-22T02:56:28;28.90;66.00
21425;DHT22;10873;51.132;16.848;2023-06-22T02:58:56;28.90;66.00
21425;DHT22;10873;51.132;16.848;2023-06-22T03:01:26;28.90;66.00
21425;DHT22;10873;51.132;16.848;2023-06-22T03:03:54;28.90;66.00
21425;DHT22;10873;51.132;16.848;2023-06-22T03:06:20;28.90;66.00
21425;DHT22;10873;51.132;16.848;2023-06-22T03:08:50;28.90;66.00
21425;DHT22;10873;51.132;16.848;2023-06-22T03:11:15;28.90;66.00
21425;DHT22;10873;51.132;16.848;2023-06-22T03:13:43;28.90;66.00
21425;DHT22;10873;51.132;16.848;2023-06-22T03:16:11;28.90;66.00
21425;DHT22;10873;51.132;16.848;2023-06-22T03:18:37;28.90;65.90
21425;DHT22;10873;51.132;16.848;2023-06-22T03:21:03;28.90;65.90
21425;DHT22;10873;51.132;16.848;2023-06-22T03:23:29;28.90;65.80
21425;DHT22;10873;51.132;16.848;2023-06-22T03:25:55;29.00;65.80
21425;DHT22;10873;51.132;16.848;2023-06-22T03:28:24;29.00;65.80
21425;DHT22;10873;51.132;16.848;2023-06-22T03:30:51;29.00;66.20
21425;DHT22;10873;51.132;16.848;2023-06-22T03:33:17;29.00;65.70
21425;DHT22;10873;51.132;16.848;2023-06-22T03:35:43;29.00;65.70
21425;DHT22;10873;51.132;16.848;2023-06-22T03:38:09;29.00;65.70
21425;DHT22;10873;51.132;16.848;2023-06-22T03:40:35;29.00;65.70
21425;DHT22;10873;51.132;16.848;2023-06-22T03:43:01;29.00;65.60
21425;DHT22;10873;51.132;16.848;2023-06-22T03:45:27;29.00;65.60
21425;DHT22;10873;51.132;16.848;2023-06-22T03:47:54;29.00;65.60
21425;DHT22;10873;51.132;16.848;2023-06-22T03:50:20;29.00;65.60
21425;DHT22;10873;51.132;16.848;2023-06-22T03:52:46;29.00;65.60
21425;DHT22;10873;51.132;16.848;2023-06-22T03:55:12;29.00;65.60
21425;DHT22;10873;51.132;16.848;2023-06-22T03:57:39;29.00;65.60
21425;DHT22;10873;51.132;16.848;2023-06-22T04:00:06;29.00;65.70
21425;DHT22;10873;51.132;16.848;2023-06-22T04:02:32;29.00;66.20
21425;DHT22;10873;51.132;16.848;2023-06-22T04:04:59;28.90;66.50
21425;DHT22;10873;51.132;16.848;2023-06-22T04:07:25;28.90;67.10
21425;DHT22;10873;51.132;16.848;2023-06-22T04:09:51;28.90;67.60
21425;DHT22;10873;51.132;16.848;2023-06-22T04:12:17;28.80;67.80
21425;DHT22;10873;51.132;16.848;2023-06-22T04:14:43;28.80;68.00
21425;DHT22;10873;51.132;16.848;2023-06-22T04:17:09;28.80;68.10
21425;DHT22;10873;51.132;16.848;2023-06-22T04:19:35;28.80;68.20
21425;DHT22;10873;51.132;16.848;2023-06-22T04:22:03;28.80;68.20
21425;DHT22;10873;51.132;16.848;2023-06-22T04:24:29;28.80;68.30
21425;DHT22;10873;51.132;16.848;2023-06-22T04:26:55;28.80;68.50
21425;DHT22;10873;51.132;16.848;2023-06-22T04:29:21;28.80;68.70
21425;DHT22;10873;51.132;16.848;2023-06-22T04:31:54;28.80;68.70
21425;DHT22;10873;51.132;16.848;2023-06-22T04:34:21;28.80;68.90
21425;DHT22;10873;51.132;16.848;2023-06-22T04:36:47;28.80;69.00
21425;DHT22;10873;51.132;16.848;2023-06-22T04:39:15;28.80;69.20
21425;DHT22;10873;51.132;16.848;2023-06-22T04:41:41;28.80;69.20
21425;DHT22;10873;51.132;16.848;2023-06-22T04:44:09;28.80;69.30
21425;DHT22;10873;51.132;16.848;2023-06-22T04:46:36;28.80;69.40
21425;DHT22;10873;51.132;16.848;2023-06-22T04:49:05;28.80;69.60
21425;DHT22;10873;51.132;16.848;2023-06-22T04:51:32;28.80;69.80
21425;DHT22;10873;51.132;16.848;2023-06-22T04:53:58;28.80;69.90
21425;DHT22;10873;51.132;16.848;2023-06-22T04:56:28;28.80;69.90
21425;DHT22;10873;51.132;16.848;2023-06-22T04:58:54;28.80;69.80
21425;DHT22;10873;51.132;16.848;2023-06-22T05:01:23;28.80;70.00
21425;DHT22;10873;51.132;16.848;2023-06-22T05:03:49;28.80;70.50
21425;DHT22;10873;51.132;16.848;2023-06-22T05:06:15;28.80;70.90
21425;DHT22;10873;51.132;16.848;2023-06-22T05:08:41;28.80;71.00
21425;DHT22;10873;51.132;16.848;2023-06-22T05:11:07;28.80;71.10
21425;DHT22;10873;51.132;16.848;2023-06-22T05:13:34;28.80;71.00
21425;DHT22;10873;51.132;16.848;2023-06-22T05:16:00;28.80;70.90
21425;DHT22;10873;51.132;16.848;2023-06-22T05:18:27;28.80;70.90
21425;DHT22;10873;51.132;16.848;2023-06-22T05:20:53;28.80;70.90
21425;DHT22;10873;51.132;16.848;2023-06-22T05:23:19;28.80;70.80
21425;DHT22;10873;51.132;16.848;2023-06-22T05:25:46;28.80;70.70
21425;DHT22;10873;51.132;16.848;2023-06-22T05:28:11;28.80;70.70
21425;DHT22;10873;51.132;16.848;2023-06-22T05:30:39;28.80;70.60
21425;DHT22;10873;51.132;16.848;2023-06-22T05:33:05;28.80;70.60
21425;DHT22;10873;51.132;16.848;2023-06-22T05:35:31;28.80;70.60
21425;DHT22;10873;51.132;16.848;2023-06-22T05:37:57;28.80;70.50
21425;DHT22;10873;51.132;16.848;2023-06-22T05:40:23;28.80;70.50
21425;DHT22;10873;51.132;16.848;2023-06-22T05:42:49;28.90;70.50
21425;DHT22;10873;51.132;16.848;2023-06-22T05:45:15;28.80;70.40
21425;DHT22;10873;51.132;16.848;2023-06-22T05:47:42;28.90;70.40
21425;DHT22;10873;51.132;16.848;2023-06-22T05:50:09;28.80;70.30
21425;DHT22;10873;51.132;16.848;2023-06-22T05:52:35;28.80;70.20
21425;DHT22;10873;51.132;16.848;2023-06-22T05:55:02;28.90;70.30
21425;DHT22;10873;51.132;16.848;2023-06-22T05:57:28;28.90;70.10
21425;DHT22;10873;51.132;16.848;2023-06-22T05:59:54;28.90;70.10
21425;DHT22;10873;51.132;16.848;2023-06-22T06:02:20;28.90;70.10
21425;DHT22;10873;51.132;16.848;2023-06-22T06:04:47;28.90;70.10
21425;DHT22;10873;51.132;16.848;2023-06-22T06:07:13;28.90;70.00
21425;DHT22;10873;51.132;16.848;2023-06-22T06:09:39;28.90;70.10
21425;DHT22;10873;51.132;16.848;2023-06-22T06:12:06;28.90;69.90
21425;DHT22;10873;51.132;16.848;2023-06-22T06:14:32;28.90;69.90
21425;DHT22;10873;51.132;16.848;2023-06-22T06:16:58;28.90;69.80
21425;DHT22;10873;51.132;16.848;2023-06-22T06:19:24;28.90;69.70
21425;DHT22;10873;51.132;16.848;2023-06-22T06:21:52;28.90;69.60
21425;DHT22;10873;51.132;16.848;2023-06-22T06:24:18;28.90;69.50
21425;DHT22;10873;51.132;16.848;2023-06-22T06:26:44;28.90;69.50
21425;DHT22;10873;51.132;16.848;2023-06-22T06:29:10;28.90;69.40
21425;DHT22;10873;51.132;16.848;2023-06-22T06:31:36;28.90;69.30
21425;DHT22;10873;51.132;16.848;2023-06-22T06:34:02;28.90;69.20
21425;DHT22;10873;51.132;16.848;2023-06-22T06:36:28;29.00;69.10
21425;DHT22;10873;51.132;16.848;2023-06-22T06:38:55;29.00;68.80
21425;DHT22;10873;51.132;16.848;2023-06-22T06:41:21;29.00;68.50
21425;DHT22;10873;51.132;16.848;2023-06-22T06:43:47;29.00;68.30
21425;DHT22;10873;51.132;16.848;2023-06-22T06:46:13;29.10;68.20
21425;DHT22;10873;51.132;16.848;2023-06-22T06:48:39;29.00;68.60
21425;DHT22;10873;51.132;16.848;2023-06-22T06:51:05;29.00;67.50
21425;DHT22;10873;51.132;16.848;2023-06-22T06:53:35;29.00;67.30
21425;DHT22;10873;51.132;16.848;2023-06-22T06:56:03;29.10;67.10
21425;DHT22;10873;51.132;16.848;2023-06-22T06:58:31;29.10;66.70
21425;DHT22;10873;51.132;16.848;2023-06-22T07:00:57;29.10;66.50
21425;DHT22;10873;51.132;16.848;2023-06-22T07:03:23;29.10;66.20
21425;DHT22;10873;51.132;16.848;2023-06-22T07:05:49;29.10;65.90
21425;DHT22;10873;51.132;16.848;2023-06-22T07:08:15;29.10;65.70
21425;DHT22;10873;51.132;16.848;2023-06-22T07:10:41;29.10;65.40
21425;DHT22;10873;51.132;16.848;2023-06-22T07:13:08;29.10;65.20
21425;DHT22;10873;51.132;16.848;2023-06-22T07:15:34;29.10;64.80
21425;DHT22;10873;51.132;16.848;2023-06-22T07:18:00;29.20;64.70
21425;DHT22;10873;51.132;16.848;2023-06-22T07:20:26;29.10;64.50
21425;DHT22;10873;51.132;16.848;2023-06-22T07:22:52;29.10;64.40
21425;DHT22;10873;51.132;16.848;2023-06-22T07:25:19;29.10;64.30
21425;DHT22;10873;51.132;16.848;2023-06-22T07:27:46;29.20;64.30
21425;DHT22;10873;51.132;16.848;2023-06-22T07:30:14;29.10;64.10
21425;DHT22;10873;51.132;16.848;2023-06-22T07:32:40;29.10;64.00
21425;DHT22;10873;51.132;16.848;2023-06-22T07:35:07;29.10;63.80
21425;DHT22;10873;51.132;16.848;2023-06-22T07:37:33;29.20;63.90
21425;DHT22;10873;51.132;16.848;2023-06-22T07:40:00;29.20;63.80
21425;DHT22;10873;51.132;16.848;2023-06-22T07:42:27;29.10;63.60
21425;DHT22;10873;51.132;16.848;2023-06-22T07:44:53;29.20;63.60
21425;DHT22;10873;51.132;16.848;2023-06-22T07:47:21;29.20;63.50
21425;DHT22;10873;51.132;16.848;2023-06-22T07:49:51;29.20;63.50
21425;DHT22;10873;51.132;16.848;2023-06-22T07:52:18;29.20;63.30
21425;DHT22;10873;51.132;16.848;2023-06-22T07:54:43;29.20;63.20
21425;DHT22;10873;51.132;16.848;2023-06-22T07:57:10;29.20;63.20
21425;DHT22;10873;51.132;16.848;2023-06-22T07:59:36;29.20;63.00
21425;DHT22;10873;51.132;16.848;2023-06-22T08:02:03;29.20;62.90
21425;DHT22;10873;51.132;16.848;2023-06-22T08:04:30;29.20;62.90
21425;DHT22;10873;51.132;16.848;2023-06-22T08:06:59;29.20;62.90
21425;DHT22;10873;51.132;16.848;2023-06-22T08:09:27;29.20;62.90
21425;DHT22;10873;51.132;16.848;2023-06-22T08:11:53;29.20;62.70
21425;DHT22;10873;51.132;16.848;2023-06-22T08:14:21;29.20;62.70
21425;DHT22;10873;51.132;16.848;2023-06-22T08:16:47;29.20;62.60
21425;DHT22;10873;51.132;16.848;2023-06-22T08:19:13;29.20;62.70
21425;DHT22;10873;51.132;16.848;2023-06-22T08:21:41;29.20;62.70
21425;DHT22;10873;51.132;16.848;2023-06-22T08:24:07;29.20;62.70
21425;DHT22;10873;51.132;16.848;2023-06-22T08:26:34;29.20;62.70
21425;DHT22;10873;51.132;16.848;2023-06-22T08:29:02;29.20;62.70
21425;DHT22;10873;51.132;16.848;2023-06-22T08:31:28;29.20;62.60
21425;DHT22;10873;51.132;16.848;2023-06-22T08:33:54;29.20;62.60
21425;DHT22;10873;51.132;16.848;2023-06-22T08:36:21;29.20;62.60
21425;DHT22;10873;51.132;16.848;2023-06-22T08:38:48;29.20;62.70
21425;DHT22;10873;51.132;16.848;2023-06-22T08:41:17;29.20;62.70
21425;DHT22;10873;51.132;16.848;2023-06-22T08:43:43;29.20;62.70
21425;DHT22;10873;51.132;16.848;2023-06-22T08:46:10;29.20;62.70
21425;DHT22;10873;51.132;16.848;2023-06-22T08:48:36;29.20;62.70
21425;DHT22;10873;51.132;16.848;2023-06-22T08:51:03;29.30;62.70
21425;DHT22;10873;51.132;16.848;2023-06-22T08:53:29;29.20;62.70
21425;DHT22;10873;51.132;16.848;2023-06-22T08:55:57;29.30;62.70
21425;DHT22;10873;51.132;16.848;2023-06-22T08:58:23;29.30;62.70
21425;DHT22;10873;51.132;16.848;2023-06-22T09:00:50;29.30;62.70
21425;DHT22;10873;51.132;16.848;2023-06-22T09:03:17;29.30;62.70
21425;DHT22;10873;51.132;16.848;2023-06-22T09:05:43;29.30;62.70
21425;DHT22;10873;51.132;16.848;2023-06-22T09:08:10;29.30;62.70
21425;DHT22;10873;51.132;16.848;2023-06-22T09:10:37;29.30;62.70
21425;DHT22;10873;51.132;16.848;2023-06-22T09:13:04;29.30;62.80
21425;DHT22;10873;51.132;16.848;2023-06-22T09:15:30;29.30;62.80
21425;DHT22;10873;51.132;16.848;2023-06-22T09:17:56;29.30;62.90
21425;DHT22;10873;51.132;16.848;2023-06-22T09:20:23;29.30;62.90
21425;DHT22;10873;51.132;16.848;2023-06-22T09:22:49;29.30;62.90
21425;DHT22;10873;51.132;16.848;2023-06-22T09:25:15;29.40;63.00
21425;DHT22;10873;51.132;16.848;2023-06-22T09:27:41;29.30;62.90
21425;DHT22;10873;51.132;16.848;2023-06-22T09:30:09;29.30;62.90
21425;DHT22;10873;51.132;16.848;2023-06-22T09:32:36;29.30;63.00
21425;DHT22;10873;51.132;16.848;2023-06-22T09:35:04;29.40;63.00
21425;DHT22;10873;51.132;16.848;2023-06-22T09:37:31;29.30;63.00
21425;DHT22;10873;51.132;16.848;2023-06-22T09:39:57;29.40;63.10
21425;DHT22;10873;51.132;16.848;2023-06-22T09:42:23;29.40;63.10
21425;DHT22;10873;51.132;16.848;2023-06-22T09:44:49;29.40;63.20
21425;DHT22;10873;51.132;16.848;2023-06-22T09:47:17;29.40;63.10
21425;DHT22;10873;51.132;16.848;2023-06-22T09:49:43;29.40;63.20
21425;DHT22;10873;51.132;16.848;2023-06-22T09:52:09;29.40;63.10
21425;DHT22;10873;51.132;16.848;2023-06-22T09:54:37;29.40;63.10
21425;DHT22;10873;51.132;16.848;2023-06-22T09:57:03;29.40;63.10
21425;DHT22;10873;51.132;16.848;2023-06-22T09:59:29;29.40;63.10
21425;DHT22;10873;51.132;16.848;2023-06-22T10:01:55;29.40;63.10
21425;DHT22;10873;51.132;16.848;2023-06-22T10:04:23;29.40;63.10
21425;DHT22;10873;51.132;16.848;2023-06-22T10:06:50;29.40;63.00
21425;DHT22;10873;51.132;16.848;2023-06-22T10:09:16;29.40;63.00
21425;DHT22;10873;51.132;16.848;2023-06-22T10:11:42;29.40;63.10
21425;DHT22;10873;51.132;16.848;2023-06-22T10:14:08;29.40;63.10
21425;DHT22;10873;51.132;16.848;2023-06-22T10:16:36;29.40;63.00
21425;DHT22;10873;51.132;16.848;2023-06-22T10:19:02;29.40;63.00
21425;DHT22;10873;51.132;16.848;2023-06-22T10:21:30;29.50;63.00
21425;DHT22;10873;51.132;16.848;2023-06-22T10:23:56;29.50;63.00
21425;DHT22;10873;51.132;16.848;2023-06-22T10:26:22;29.50;63.00
21425;DHT22;10873;51.132;16.848;2023-06-22T10:28:48;29.50;63.00
21425;DHT22;10873;51.132;16.848;2023-06-22T10:31:14;29.50;62.90
21425;DHT22;10873;51.132;16.848;2023-06-22T10:33:42;29.50;62.80
21425;DHT22;10873;51.132;16.848;2023-06-22T10:36:10;29.60;62.90
21425;DHT22;10873;51.132;16.848;2023-06-22T10:38:38;29.60;62.90
21425;DHT22;10873;51.132;16.848;2023-06-22T10:41:04;29.60;62.80
21425;DHT22;10873;51.132;16.848;2023-06-22T10:43:30;29.60;62.70
21425;DHT22;10873;51.132;16.848;2023-06-22T10:45:56;29.70;62.80
21425;DHT22;10873;51.132;16.848;2023-06-22T10:48:22;29.70;62.70
21425;DHT22;10873;51.132;16.848;2023-06-22T10:50:48;29.70;62.60
21425;DHT22;10873;51.132;16.848;2023-06-22T10:53:14;29.70;62.60
21425;DHT22;10873;51.132;16.848;2023-06-22T10:55:41;29.70;62.50
21425;DHT22;10873;51.132;16.848;2023-06-22T10:58:07;29.70;62.50
21425;DHT22;10873;51.132;16.848;2023-06-22T11:00:33;29.70;62.40
21425;DHT22;10873;51.132;16.848;2023-06-22T11:03:00;29.80;62.50
21425;DHT22;10873;51.132;16.848;2023-06-22T11:05:27;29.80;62.50
21425;DHT22;10873;51.132;16.848;2023-06-22T11:08:10;29.80;62.50
21425;DHT22;10873;51.132;16.848;2023-06-22T11:20:06;29.80;62.40
21425;DHT22;10873;51.132;16.848;2023-06-22T11:22:36;29.80;62.50
21425;DHT22;10873;51.132;16.848;2023-06-22T11:25:03;29.80;62.50
21425;DHT22;10873;51.132;16.848;2023-06-22T11:27:29;29.80;62.50
21425;DHT22;10873;51.132;16.848;2023-06-22T11:29:56;29.80;62.50
21425;DHT22;10873;51.132;16.848;2023-06-22T11:32:22;29.80;62.60
21425;DHT22;10873;51.132;16.848;2023-06-22T11:34:48;29.80;63.40
21425;DHT22;10873;51.132;16.848;2023-06-22T11:37:16;29.80;62.60
21425;DHT22;10873;51.132;16.848;2023-06-22T11:39:42;29.80;62.70
21425;DHT22;10873;51.132;16.848;2023-06-22T11:42:09;29.70;62.70
21425;DHT22;10873;51.132;16.848;2023-06-22T11:44:35;29.70;62.70
21425;DHT22;10873;51.132;16.848;2023-06-22T11:47:01;29.80;62.90
21425;DHT22;10873;51.132;16.848;2023-06-22T11:49:30;29.80;62.80
21425;DHT22;10873;51.132;16.848;2023-06-22T11:51:56;29.80;62.80
21425;DHT22;10873;51.132;16.848;2023-06-22T11:54:23;29.70;62.70
21425;DHT22;10873;51.132;16.848;2023-06-22T11:56:49;29.70;62.80
21425;DHT22;10873;51.132;16.848;2023-06-22T11:59:16;29.80;62.80
21425;DHT22;10873;51.132;16.848;2023-06-22T12:01:41;29.70;62.70
21425;DHT22;10873;51.132;16.848;2023-06-22T12:04:08;29.80;62.80
21425;DHT22;10873;51.132;16.848;2023-06-22T12:06:37;29.70;62.80
21425;DHT22;10873;51.132;16.848;2023-06-22T12:09:07;29.70;62.70
21425;DHT22;10873;51.132;16.848;2023-06-22T12:11:34;29.80;62.70
21425;DHT22;10873;51.132;16.848;2023-06-22T12:14:00;29.80;62.70
21425;DHT22;10873;51.132;16.848;2023-06-22T12:16:28;29.80;62.70
21425;DHT22;10873;51.132;16.848;2023-06-22T12:18:54;29.80;62.70
21425;DHT22;10873;51.132;16.848;2023-06-22T12:21:20;29.70;62.70
21425;DHT22;10873;51.132;16.848;2023-06-22T12:23:46;29.80;62.70
21425;DHT22;10873;51.132;16.848;2023-06-22T12:26:12;29.70;62.70
21425;DHT22;10873;51.132;16.848;2023-06-22T12:28:39;29.70;62.70
21425;DHT22;10873;51.132;16.848;2023-06-22T12:31:05;29.70;62.70
21425;DHT22;10873;51.132;16.848;2023-06-22T12:33:31;29.80;62.80
21425;DHT22;10873;51.132;16.848;2023-06-22T12:35:57;29.80;62.80
21425;DHT22;10873;51.132;16.848;2023-06-22T12:38:23;29.70;62.70
21425;DHT22;10873;51.132;16.848;2023-06-22T12:40:52;29.70;62.70
21425;DHT22;10873;51.132;16.848;2023-06-22T12:43:18;29.70;62.70
21425;DHT22;10873;51.132;16.848;2023-06-22T12:45:45;29.70;62.60
21425;DHT22;10873;51.132;16.848;2023-06-22T12:48:12;29.80;62.60
21425;DHT22;10873;51.132;16.848;2023-06-22T12:50:38;29.70;62.30
21425;DHT22;10873;51.132;16.848;2023-06-22T12:53:04;29.80;62.30
21425;DHT22;10873;51.132;16.848;2023-06-22T12:55:31;29.80;62.10
21425;DHT22;10873;51.132;16.848;2023-06-22T12:57:57;29.80;62.00
21425;DHT22;10873;51.132;16.848;2023-06-22T13:00:23;29.80;61.80
21425;DHT22;10873;51.132;16.848;2023-06-22T13:02:51;29.70;61.50
21425;DHT22;10873;51.132;16.848;2023-06-22T13:05:17;29.70;61.20
21425;DHT22;10873;51.132;16.848;2023-06-22T13:07:43;29.80;60.90
21425;DHT22;10873;51.132;16.848;2023-06-22T13:10:09;29.80;60.80
21425;DHT22;10873;51.132;16.848;2023-06-22T13:12:35;29.80;60.60
21425;DHT22;10873;51.132;16.848;2023-06-22T13:15:01;29.80;60.40
21425;DHT22;10873;51.132;16.848;2023-06-22T13:17:29;29.70;60.00
21425;DHT22;10873;51.132;16.848;2023-06-22T13:19:57;29.80;59.90
21425;DHT22;10873;51.132;16.848;2023-06-22T13:22:28;29.70;59.70
21425;DHT22;10873;51.132;16.848;2023-06-22T13:24:58;29.70;59.60
21425;DHT22;10873;51.132;16.848;2023-06-22T13:27:25;29.70;59.30
21425;DHT22;10873;51.132;16.848;2023-06-22T13:29:51;29.70;59.10
21425;DHT22;10873;51.132;16.848;2023-06-22T13:32:17;29.80;59.10
21425;DHT22;10873;51.132;16.848;2023-06-22T13:34:43;29.70;58.90
21425;DHT22;10873;51.132;16.848;2023-06-22T13:37:11;29.70;58.80
21425;DHT22;10873;51.132;16.848;2023-06-22T13:39:37;29.70;57.80
21425;DHT22;10873;51.132;16.848;2023-06-22T13:42:03;29.70;57.20
21425;DHT22;10873;51.132;16.848;2023-06-22T13:44:29;29.70;56.70
21425;DHT22;10873;51.132;16.848;2023-06-22T13:46:55;29.70;56.50
21425;DHT22;10873;51.132;16.848;2023-06-22T13:49:21;29.70;56.40
21425;DHT22;10873;51.132;16.848;2023-06-22T13:51:48;29.70;56.50
21425;DHT22;10873;51.132;16.848;2023-06-22T13:54:16;29.80;56.60
21425;DHT22;10873;51.132;16.848;2023-06-22T13:56:42;29.80;56.70
21425;DHT22;10873;51.132;16.848;2023-06-22T13:59:08;29.80;56.60
21425;DHT22;10873;51.132;16.848;2023-06-22T14:01:35;29.90;56.70
21425;DHT22;10873;51.132;16.848;2023-06-22T14:04:02;29.90;56.80
21425;DHT22;10873;51.132;16.848;2023-06-22T14:06:28;29.90;56.70
21425;DHT22;10873;51.132;16.848;2023-06-22T14:08:53;29.90;56.70
21425;DHT22;10873;51.132;16.848;2023-06-22T14:11:21;29.90;56.60
21425;DHT22;10873;51.132;16.848;2023-06-22T14:13:47;29.90;57.20
21425;DHT22;10873;51.132;16.848;2023-06-22T14:16:13;29.90;56.60
21425;DHT22;10873;51.132;16.848;2023-06-22T14:18:39;29.90;56.60
21425;DHT22;10873;51.132;16.848;2023-06-22T14:21:05;29.90;56.50
21425;DHT22;10873;51.132;16.848;2023-06-22T14:23:31;29.90;56.30
21425;DHT22;10873;51.132;16.848;2023-06-22T14:25:57;29.90;56.30
21425;DHT22;10873;51.132;16.848;2023-06-22T14:28:25;29.90;56.30
21425;DHT22;10873;51.132;16.848;2023-06-22T14:30:51;29.90;56.30
21425;DHT22;10873;51.132;16.848;2023-06-22T14:33:17;29.90;56.00
21425;DHT22;10873;51.132;16.848;2023-06-22T14:35:43;29.90;55.50
21425;DHT22;10873;51.132;16.848;2023-06-22T14:38:09;29.90;55.30
21425;DHT22;10873;51.132;16.848;2023-06-22T14:40:35;29.90;55.20
21425;DHT22;10873;51.132;16.848;2023-06-22T14:43:01;29.90;55.30
21425;DHT22;10873;51.132;16.848;2023-06-22T14:45:28;29.90;55.40
21425;DHT22;10873;51.132;16.848;2023-06-22T14:47:54;29.80;55.30
21425;DHT22;10873;51.132;16.848;2023-06-22T14:50:20;29.90;55.20
21425;DHT22;10873;51.132;16.848;2023-06-22T14:52:46;29.90;55.30
21425;DHT22;10873;51.132;16.848;2023-06-22T14:55:12;29.90;55.30
21425;DHT22;10873;51.132;16.848;2023-06-22T14:57:38;29.90;55.30
21425;DHT22;10873;51.132;16.848;2023-06-22T15:00:06;29.80;55.20
21425;DHT22;10873;51.132;16.848;2023-06-22T15:02:34;29.90;55.30
21425;DHT22;10873;51.132;16.848;2023-06-22T15:05:00;29.90;55.20
21425;DHT22;10873;51.132;16.848;2023-06-22T15:07:26;29.90;55.10
21425;DHT22;10873;51.132;16.848;2023-06-22T15:09:52;29.80;55.00
21425;DHT22;10873;51.132;16.848;2023-06-22T15:12:17;29.80;54.70
21425;DHT22;10873;51.132;16.848;2023-06-22T15:14:44;29.90;54.70
21425;DHT22;10873;51.132;16.848;2023-06-22T15:17:10;29.90;54.60
21425;DHT22;10873;51.132;16.848;2023-06-22T15:19:38;29.90;54.50
21425;DHT22;10873;51.132;16.848;2023-06-22T15:22:05;29.90;54.50